sensor_id;sensor_type;location;lat;lon;timestamp;temperature;humidity
13268;DHT22;6702;47.068;15.458;2023-03-03T00:02:12;8.20;95.30
13268;DHT22;6702;47.068;15.458;2023-03-03T00:05:16;8.20;95.70
13268;DHT22;6702;47.068;15.458;2023-03-03T00:08:21;8.10;96.00
13268;DHT22;6702;47.068;15.458;2023-03-03T00:11:24;8.10;96.30
13268;DHT22;6702;47.068;15.458;2023-03-03T00:14:29;8.10;96.40
13268;DHT22;6702;47.068;15.458;2023-03-03T00:17:33;8.10;96.70
13268;DHT22;6702;47.068;15.458;2023-03-03T00:20:38;8.10;96.90
13268;DHT22;6702;47.068;15.458;2023-03-03T00:23:41;8.00;97.00
13268;DHT22;6702;47.068;15.458;2023-03-03T00:26:46;8.10;97.30
13268;DHT22;6702;47.068;15.458;2023-03-03T00:29:52;8.00;97.50
13268;DHT22;6702;47.068;15.458;2023-03-03T00:32:57;7.90;97.90
13268;DHT22;6702;47.068;15.458;2023-03-03T00:36:25;7.90;98.20
13268;DHT22;6702;47.068;15.458;2023-03-03T00:39:34;7.80;98.40
13268;DHT22;6702;47.068;15.458;2023-03-03T00:42:37;7.80;98.70
13268;DHT22;6702;47.068;15.458;2023-03-03T00:45:43;7.70;99.10
13268;DHT22;6702;47.068;15.458;2023-03-03T00:48:49;7.60;99.50
13268;DHT22;6702;47.068;15.458;2023-03-03T00:51:54;7.60;99.80
13268;DHT22;6702;47.068;15.458;2023-03-03T00:54:58;7.60;99.90
13268;DHT22;6702;47.068;15.458;2023-03-03T00:58:01;7.60;99.90
13268;DHT22;6702;47.068;15.458;2023-03-03T01:01:05;7.60;99.90
13268;DHT22;6702;47.068;15.458;2023-03-03T01:04:08;7.70;99.90
13268;DHT22;6702;47.068;15.458;2023-03-03T01:07:13;7.70;99.90
13268;DHT22;6702;47.068;15.458;2023-03-03T01:10:16;7.70;99.90
13268;DHT22;6702;47.068;15.458;2023-03-03T01:13:24;7.70;99.90
13268;DHT22;6702;47.068;15.458;2023-03-03T01:16:27;7.70;99.90
13268;DHT22;6702;47.068;15.458;2023-03-03T01:19:31;7.70;99.90
13268;DHT22;6702;47.068;15.458;2023-03-03T01:22:35;7.70;99.90
13268;DHT22;6702;47.068;15.458;2023-03-03T01:25:38;7.60;99.90
13268;DHT22;6702;47.068;15.458;2023-03-03T01:28:42;7.70;99.90
13268;DHT22;6702;47.068;15.458;2023-03-03T01:31:45;7.60;99.90
13268;DHT22;6702;47.068;15.458;2023-03-03T01:34:48;7.60;99.90
13268;DHT22;6702;47.068;15.458;2023-03-03T01:37:53;7.60;99.90
13268;DHT22;6702;47.068;15.458;2023-03-03T01:40:57;7.60;99.90
13268;DHT22;6702;47.068;15.458;2023-03-03T01:44:01;7.60;99.90
13268;DHT22;6702;47.068;15.458;2023-03-03T01:47:06;7.50;99.90
13268;DHT22;6702;47.068;15.458;2023-03-03T01:50:14;7.50;99.90
13268;DHT22;6702;47.068;15.458;2023-03-03T01:53:26;7.40;99.90
13268;DHT22;6702;47.068;15.458;2023-03-03T01:56:30;7.40;99.90
13268;DHT22;6702;47.068;15.458;2023-03-03T01:59:35;7.30;99.90
13268;DHT22;6702;47.068;15.458;2023-03-03T02:02:40;7.30;99.90
13268;DHT22;6702;47.068;15.458;2023-03-03T02:05:44;7.30;99.90
13268;DHT22;6702;47.068;15.458;2023-03-03T02:08:53;7.30;99.90
13268;DHT22;6702;47.068;15.458;2023-03-03T02:11:59;7.40;99.90
13268;DHT22;6702;47.068;15.458;2023-03-03T02:15:15;7.40;99.90
13268;DHT22;6702;47.068;15.458;2023-03-03T02:18:19;7.40;99.90
13268;DHT22;6702;47.068;15.458;2023-03-03T02:21:23;7.40;99.90
13268;DHT22;6702;47.068;15.458;2023-03-03T02:24:34;7.50;99.90
13268;DHT22;6702;47.068;15.458;2023-03-03T02:27:42;7.50;99.90
13268;DHT22;6702;47.068;15.458;2023-03-03T02:30:45;7.40;99.90
13268;DHT22;6702;47.068;15.458;2023-03-03T02:33:50;7.50;99.90
13268;DHT22;6702;47.068;15.458;2023-03-03T02:36:53;7.40;99.90
13268;DHT22;6702;47.068;15.458;2023-03-03T02:39:56;7.40;99.90
13268;DHT22;6702;47.068;15.458;2023-03-03T02:43:02;7.40;99.90
13268;DHT22;6702;47.068;15.458;2023-03-03T02:46:06;7.40;99.90
13268;DHT22;6702;47.068;15.458;2023-03-03T02:49:12;7.30;99.90
13268;DHT22;6702;47.068;15.458;2023-03-03T02:52:16;7.30;99.90
13268;DHT22;6702;47.068;15.458;2023-03-03T02:55:19;7.20;99.90
13268;DHT22;6702;47.068;15.458;2023-03-03T02:58:24;7.10;99.90
13268;DHT22;6702;47.068;15.458;2023-03-03T03:01:27;7.10;99.90
13268;DHT22;6702;47.068;15.458;2023-03-03T03:04:32;7.10;99.90
13268;DHT22;6702;47.068;15.458;2023-03-03T03:07:36;7.10;99.90
13268;DHT22;6702;47.068;15.458;2023-03-03T03:10:39;7.20;99.90
13268;DHT22;6702;47.068;15.458;2023-03-03T03:13:43;7.10;99.90
13268;DHT22;6702;47.068;15.458;2023-03-03T03:16:47;7.10;99.90
13268;DHT22;6702;47.068;15.458;2023-03-03T03:19:50;7.10;99.90
13268;DHT22;6702;47.068;15.458;2023-03-03T03:22:53;7.10;99.90
13268;DHT22;6702;47.068;15.458;2023-03-03T03:25:56;7.10;99.90
13268;DHT22;6702;47.068;15.458;2023-03-03T03:29:01;7.00;99.90
13268;DHT22;6702;47.068;15.458;2023-03-03T03:32:05;7.00;99.90
13268;DHT22;6702;47.068;15.458;2023-03-03T03:35:08;7.00;99.90
13268;DHT22;6702;47.068;15.458;2023-03-03T03:38:12;7.10;99.90
13268;DHT22;6702;47.068;15.458;2023-03-03T03:41:16;7.10;99.90
13268;DHT22;6702;47.068;15.458;2023-03-03T03:44:21;7.10;99.90
13268;DHT22;6702;47.068;15.458;2023-03-03T03:47:24;7.10;99.90
13268;DHT22;6702;47.068;15.458;2023-03-03T03:50:27;7.10;99.90
13268;DHT22;6702;47.068;15.458;2023-03-03T03:53:31;7.10;99.90
13268;DHT22;6702;47.068;15.458;2023-03-03T03:56:34;7.10;99.90
13268;DHT22;6702;47.068;15.458;2023-03-03T03:59:39;7.10;99.90
13268;DHT22;6702;47.068;15.458;2023-03-03T04:02:42;7.00;99.90
13268;DHT22;6702;47.068;15.458;2023-03-03T04:05:45;7.00;99.90
13268;DHT22;6702;47.068;15.458;2023-03-03T04:08:49;7.00;99.90
13268;DHT22;6702;47.068;15.458;2023-03-03T04:11:52;7.00;99.90
13268;DHT22;6702;47.068;15.458;2023-03-03T04:14:56;7.00;99.90
13268;DHT22;6702;47.068;15.458;2023-03-03T04:17:59;7.00;99.90
13268;DHT22;6702;47.068;15.458;2023-03-03T04:21:03;7.00;99.90
13268;DHT22;6702;47.068;15.458;2023-03-03T04:24:07;7.00;99.90
13268;DHT22;6702;47.068;15.458;2023-03-03T04:27:10;7.00;99.90
13268;DHT22;6702;47.068;15.458;2023-03-03T04:30:15;6.90;99.90
13268;DHT22;6702;47.068;15.458;2023-03-03T04:33:19;6.80;99.90
13268;DHT22;6702;47.068;15.458;2023-03-03T04:36:22;6.90;99.90
13268;DHT22;6702;47.068;15.458;2023-03-03T04:39:26;6.90;99.90
13268;DHT22;6702;47.068;15.458;2023-03-03T04:42:29;6.90;99.90
13268;DHT22;6702;47.068;15.458;2023-03-03T04:45:34;6.80;99.90
13268;DHT22;6702;47.068;15.458;2023-03-03T04:48:37;6.90;99.90
13268;DHT22;6702;47.068;15.458;2023-03-03T04:51:40;6.90;99.90
13268;DHT22;6702;47.068;15.458;2023-03-03T04:54:44;6.90;99.90
13268;DHT22;6702;47.068;15.458;2023-03-03T04:57:47;6.90;99.90
13268;DHT22;6702;47.068;15.458;2023-03-03T05:00:55;6.80;99.90
13268;DHT22;6702;47.068;15.458;2023-03-03T05:03:58;6.90;99.90
13268;DHT22;6702;47.068;15.458;2023-03-03T05:07:01;6.90;99.90
13268;DHT22;6702;47.068;15.458;2023-03-03T05:10:06;6.90;99.90
13268;DHT22;6702;47.068;15.458;2023-03-03T05:13:10;7.00;99.90
13268;DHT22;6702;47.068;15.458;2023-03-03T05:16:17;7.00;99.90
13268;DHT22;6702;47.068;15.458;2023-03-03T05:19:20;7.00;99.90
13268;DHT22;6702;47.068;15.458;2023-03-03T05:22:24;7.00;99.90
13268;DHT22;6702;47.068;15.458;2023-03-03T05:25:27;7.10;99.90
13268;DHT22;6702;47.068;15.458;2023-03-03T05:28:31;7.10;99.90
13268;DHT22;6702;47.068;15.458;2023-03-03T05:31:36;7.10;99.90
13268;DHT22;6702;47.068;15.458;2023-03-03T05:34:39;7.00;99.90
13268;DHT22;6702;47.068;15.458;2023-03-03T05:37:42;7.00;99.90
13268;DHT22;6702;47.068;15.458;2023-03-03T05:40:48;6.90;99.90
13268;DHT22;6702;47.068;15.458;2023-03-03T05:43:51;6.90;99.90
13268;DHT22;6702;47.068;15.458;2023-03-03T05:46:56;7.00;99.90
13268;DHT22;6702;47.068;15.458;2023-03-03T05:50:00;7.00;99.90
13268;DHT22;6702;47.068;15.458;2023-03-03T05:53:03;7.00;99.90
13268;DHT22;6702;47.068;15.458;2023-03-03T05:56:06;7.00;99.90
13268;DHT22;6702;47.068;15.458;2023-03-03T05:59:10;7.00;99.90
13268;DHT22;6702;47.068;15.458;2023-03-03T06:02:14;7.10;99.90
13268;DHT22;6702;47.068;15.458;2023-03-03T06:05:17;7.10;99.90
13268;DHT22;6702;47.068;15.458;2023-03-03T06:08:20;7.20;99.90
13268;DHT22;6702;47.068;15.458;2023-03-03T06:11:24;7.20;99.90
13268;DHT22;6702;47.068;15.458;2023-03-03T06:14:27;7.10;99.90
13268;DHT22;6702;47.068;15.458;2023-03-03T06:17:31;7.20;99.90
13268;DHT22;6702;47.068;15.458;2023-03-03T06:20:35;7.20;99.90
13268;DHT22;6702;47.068;15.458;2023-03-03T06:23:39;7.30;99.90
13268;DHT22;6702;47.068;15.458;2023-03-03T06:26:43;7.40;99.90
13268;DHT22;6702;47.068;15.458;2023-03-03T06:29:46;7.50;99.90
13268;DHT22;6702;47.068;15.458;2023-03-03T06:32:50;7.50;99.90
13268;DHT22;6702;47.068;15.458;2023-03-03T06:35:54;7.50;99.90
13268;DHT22;6702;47.068;15.458;2023-03-03T06:38:57;7.60;99.90
13268;DHT22;6702;47.068;15.458;2023-03-03T06:42:01;7.70;99.90
13268;DHT22;6702;47.068;15.458;2023-03-03T06:45:05;7.70;99.90
13268;DHT22;6702;47.068;15.458;2023-03-03T06:48:10;7.70;99.90
13268;DHT22;6702;47.068;15.458;2023-03-03T06:51:22;7.70;99.90
13268;DHT22;6702;47.068;15.458;2023-03-03T06:54:28;7.80;99.90
13268;DHT22;6702;47.068;15.458;2023-03-03T06:57:32;8.00;99.90
13268;DHT22;6702;47.068;15.458;2023-03-03T07:00:36;8.00;99.90
13268;DHT22;6702;47.068;15.458;2023-03-03T07:03:41;8.00;99.90
13268;DHT22;6702;47.068;15.458;2023-03-03T07:06:44;8.00;99.90
13268;DHT22;6702;47.068;15.458;2023-03-03T07:09:50;8.10;99.90
13268;DHT22;6702;47.068;15.458;2023-03-03T07:12:56;8.20;99.90
13268;DHT22;6702;47.068;15.458;2023-03-03T07:16:04;8.20;99.90
13268;DHT22;6702;47.068;15.458;2023-03-03T07:19:18;8.30;99.90
13268;DHT22;6702;47.068;15.458;2023-03-03T07:22:24;8.30;99.90
13268;DHT22;6702;47.068;15.458;2023-03-03T07:25:31;8.40;99.90
13268;DHT22;6702;47.068;15.458;2023-03-03T07:28:40;8.40;99.90
13268;DHT22;6702;47.068;15.458;2023-03-03T07:31:45;8.50;99.90
13268;DHT22;6702;47.068;15.458;2023-03-03T07:34:51;8.50;99.90
13268;DHT22;6702;47.068;15.458;2023-03-03T07:37:55;8.70;99.90
13268;DHT22;6702;47.068;15.458;2023-03-03T07:41:01;8.60;99.90
13268;DHT22;6702;47.068;15.458;2023-03-03T07:44:06;8.70;99.90
13268;DHT22;6702;47.068;15.458;2023-03-03T07:47:18;8.80;99.90
13268;DHT22;6702;47.068;15.458;2023-03-03T07:50:23;9.00;99.90
13268;DHT22;6702;47.068;15.458;2023-03-03T07:53:29;9.20;99.90
13268;DHT22;6702;47.068;15.458;2023-03-03T07:56:35;9.40;99.90
13268;DHT22;6702;47.068;15.458;2023-03-03T07:59:43;9.70;99.90
13268;DHT22;6702;47.068;15.458;2023-03-03T08:02:52;10.00;99.90
13268;DHT22;6702;47.068;15.458;2023-03-03T08:05:59;10.10;99.90
13268;DHT22;6702;47.068;15.458;2023-03-03T08:09:34;10.20;99.90
13268;DHT22;6702;47.068;15.458;2023-03-03T08:12:39;10.20;99.90
13268;DHT22;6702;47.068;15.458;2023-03-03T08:15:44;10.20;99.90
13268;DHT22;6702;47.068;15.458;2023-03-03T08:18:49;10.20;99.90
13268;DHT22;6702;47.068;15.458;2023-03-03T08:21:59;10.30;99.90
13268;DHT22;6702;47.068;15.458;2023-03-03T08:25:03;10.40;99.90
13268;DHT22;6702;47.068;15.458;2023-03-03T08:28:07;10.80;99.90
13268;DHT22;6702;47.068;15.458;2023-03-03T08:31:10;11.30;99.40
13268;DHT22;6702;47.068;15.458;2023-03-03T08:34:25;11.90;98.50
13268;DHT22;6702;47.068;15.458;2023-03-03T08:37:30;12.40;97.70
13268;DHT22;6702;47.068;15.458;2023-03-03T08:40:34;13.30;96.80
13268;DHT22;6702;47.068;15.458;2023-03-03T08:43:38;14.00;95.10
13268;DHT22;6702;47.068;15.458;2023-03-03T08:46:41;14.10;93.60
13268;DHT22;6702;47.068;15.458;2023-03-03T08:49:45;13.80;92.70
13268;DHT22;6702;47.068;15.458;2023-03-03T08:52:49;13.40;93.20
13268;DHT22;6702;47.068;15.458;2023-03-03T08:55:53;13.10;93.70
13268;DHT22;6702;47.068;15.458;2023-03-03T08:58:56;12.90;94.30
13268;DHT22;6702;47.068;15.458;2023-03-03T09:02:03;13.20;95.00
13268;DHT22;6702;47.068;15.458;2023-03-03T09:05:08;15.60;93.90
13268;DHT22;6702;47.068;15.458;2023-03-03T09:08:12;17.60;87.80
13268;DHT22;6702;47.068;15.458;2023-03-03T09:11:21;17.30;81.00
13268;DHT22;6702;47.068;15.458;2023-03-03T09:14:27;18.40;80.40
13268;DHT22;6702;47.068;15.458;2023-03-03T09:17:33;22.30;67.20
13268;DHT22;6702;47.068;15.458;2023-03-03T09:20:38;25.80;53.80
13268;DHT22;6702;47.068;15.458;2023-03-03T09:23:48;28.10;41.80
13268;DHT22;6702;47.068;15.458;2023-03-03T09:26:56;29.60;37.00
13268;DHT22;6702;47.068;15.458;2023-03-03T09:30:01;31.40;31.80
13268;DHT22;6702;47.068;15.458;2023-03-03T09:33:27;33.40;28.10
13268;DHT22;6702;47.068;15.458;2023-03-03T09:36:36;34.20;25.50
13268;DHT22;6702;47.068;15.458;2023-03-03T09:39:41;35.10;24.70
13268;DHT22;6702;47.068;15.458;2023-03-03T09:42:53;35.70;23.40
13268;DHT22;6702;47.068;15.458;2023-03-03T09:46:03;36.40;22.70
13268;DHT22;6702;47.068;15.458;2023-03-03T09:49:20;37.40;21.50
13268;DHT22;6702;47.068;15.458;2023-03-03T09:52:36;38.10;20.40
13268;DHT22;6702;47.068;15.458;2023-03-03T09:55:49;38.10;19.70
13268;DHT22;6702;47.068;15.458;2023-03-03T09:59:08;38.00;19.30
13268;DHT22;6702;47.068;15.458;2023-03-03T10:02:30;38.40;19.30
13268;DHT22;6702;47.068;15.458;2023-03-03T10:05:42;39.30;18.60
13268;DHT22;6702;47.068;15.458;2023-03-03T10:09:01;39.40;18.20
13268;DHT22;6702;47.068;15.458;2023-03-03T10:12:16;39.00;17.60
13268;DHT22;6702;47.068;15.458;2023-03-03T10:15:32;36.70;18.80
13268;DHT22;6702;47.068;15.458;2023-03-03T10:18:43;36.00;19.40
13268;DHT22;6702;47.068;15.458;2023-03-03T10:21:56;36.20;19.10
13268;DHT22;6702;47.068;15.458;2023-03-03T10:25:15;37.20;18.90
13268;DHT22;6702;47.068;15.458;2023-03-03T10:31:57;38.00;17.90
13268;DHT22;6702;47.068;15.458;2023-03-03T10:35:22;38.50;17.50
13268;DHT22;6702;47.068;15.458;2023-03-03T10:38:49;38.10;17.00
13268;DHT22;6702;47.068;15.458;2023-03-03T10:42:14;37.90;17.40
13268;DHT22;6702;47.068;15.458;2023-03-03T10:45:35;38.30;17.00
13268;DHT22;6702;47.068;15.458;2023-03-03T10:48:49;36.00;18.20
13268;DHT22;6702;47.068;15.458;2023-03-03T10:52:14;36.30;17.90
13268;DHT22;6702;47.068;15.458;2023-03-03T10:55:31;37.10;17.90
13268;DHT22;6702;47.068;15.458;2023-03-03T10:58:47;37.40;17.30
13268;DHT22;6702;47.068;15.458;2023-03-03T11:01:57;36.50;17.80
13268;DHT22;6702;47.068;15.458;2023-03-03T11:05:20;35.60;18.60
13268;DHT22;6702;47.068;15.458;2023-03-03T11:08:31;34.30;19.10
13268;DHT22;6702;47.068;15.458;2023-03-03T11:11:42;32.40;20.80
13268;DHT22;6702;47.068;15.458;2023-03-03T11:14:54;31.40;21.10
13268;DHT22;6702;47.068;15.458;2023-03-03T11:18:14;29.30;22.80
13268;DHT22;6702;47.068;15.458;2023-03-03T11:21:29;28.20;24.80
13268;DHT22;6702;47.068;15.458;2023-03-03T11:24:50;31.50;23.40
13268;DHT22;6702;47.068;15.458;2023-03-03T11:28:19;35.00;20.40
13268;DHT22;6702;47.068;15.458;2023-03-03T11:31:31;36.60;18.50
13268;DHT22;6702;47.068;15.458;2023-03-03T11:34:53;37.80;17.80
13268;DHT22;6702;47.068;15.458;2023-03-03T11:38:14;35.50;18.40
13268;DHT22;6702;47.068;15.458;2023-03-03T11:41:30;34.30;19.20
13268;DHT22;6702;47.068;15.458;2023-03-03T11:44:39;34.40;19.60
13268;DHT22;6702;47.068;15.458;2023-03-03T11:47:55;32.30;20.30
13268;DHT22;6702;47.068;15.458;2023-03-03T11:51:05;30.60;21.60
13268;DHT22;6702;47.068;15.458;2023-03-03T11:54:14;28.30;23.50
13268;DHT22;6702;47.068;15.458;2023-03-03T11:57:24;25.60;26.00
13268;DHT22;6702;47.068;15.458;2023-03-03T12:00:36;22.80;29.00
13268;DHT22;6702;47.068;15.458;2023-03-03T12:03:47;21.40;31.20
13268;DHT22;6702;47.068;15.458;2023-03-03T12:07:05;19.30;34.80
13268;DHT22;6702;47.068;15.458;2023-03-03T12:10:26;18.30;36.70
13268;DHT22;6702;47.068;15.458;2023-03-03T12:13:41;17.80;37.90
13268;DHT22;6702;47.068;15.458;2023-03-03T12:16:52;17.50;38.80
13268;DHT22;6702;47.068;15.458;2023-03-03T12:20:04;19.30;37.60
13268;DHT22;6702;47.068;15.458;2023-03-03T12:23:22;21.30;34.00
13268;DHT22;6702;47.068;15.458;2023-03-03T12:26:33;21.10;33.40
13268;DHT22;6702;47.068;15.458;2023-03-03T12:29:43;20.30;35.00
13268;DHT22;6702;47.068;15.458;2023-03-03T12:33:11;19.20;36.80
13268;DHT22;6702;47.068;15.458;2023-03-03T12:36:25;18.40;38.50
13268;DHT22;6702;47.068;15.458;2023-03-03T12:39:43;18.00;39.20
13268;DHT22;6702;47.068;15.458;2023-03-03T12:43:06;17.90;40.10
13268;DHT22;6702;47.068;15.458;2023-03-03T12:46:18;17.70;40.50
13268;DHT22;6702;47.068;15.458;2023-03-03T12:49:38;18.10;41.20
13268;DHT22;6702;47.068;15.458;2023-03-03T12:53:01;22.20;37.60
13268;DHT22;6702;47.068;15.458;2023-03-03T12:56:13;26.30;30.30
13268;DHT22;6702;47.068;15.458;2023-03-03T12:59:25;29.90;26.50
13268;DHT22;6702;47.068;15.458;2023-03-03T13:02:40;29.90;24.60
13268;DHT22;6702;47.068;15.458;2023-03-03T13:05:52;26.80;26.70
13268;DHT22;6702;47.068;15.458;2023-03-03T13:12:33;22.10;31.60
13268;DHT22;6702;47.068;15.458;2023-03-03T13:15:43;20.90;33.50
13268;DHT22;6702;47.068;15.458;2023-03-03T13:18:59;19.60;36.10
13268;DHT22;6702;47.068;15.458;2023-03-03T13:22:08;18.60;37.40
13268;DHT22;6702;47.068;15.458;2023-03-03T13:25:26;18.00;39.40
13268;DHT22;6702;47.068;15.458;2023-03-03T13:28:39;17.40;41.00
13268;DHT22;6702;47.068;15.458;2023-03-03T13:31:46;16.80;42.30
13268;DHT22;6702;47.068;15.458;2023-03-03T13:34:54;16.50;42.90
13268;DHT22;6702;47.068;15.458;2023-03-03T13:38:02;16.40;43.90
13268;DHT22;6702;47.068;15.458;2023-03-03T13:41:10;17.00;42.20
13268;DHT22;6702;47.068;15.458;2023-03-03T13:44:23;17.00;41.90
13268;DHT22;6702;47.068;15.458;2023-03-03T13:47:32;16.90;42.40
13268;DHT22;6702;47.068;15.458;2023-03-03T13:50:41;17.00;42.40
13268;DHT22;6702;47.068;15.458;2023-03-03T13:53:51;17.50;42.50
13268;DHT22;6702;47.068;15.458;2023-03-03T13:57:17;18.40;41.40
13268;DHT22;6702;47.068;15.458;2023-03-03T14:00:30;18.50;40.60
13268;DHT22;6702;47.068;15.458;2023-03-03T14:04:01;18.70;40.20
13268;DHT22;6702;47.068;15.458;2023-03-03T14:07:12;18.60;40.60
13268;DHT22;6702;47.068;15.458;2023-03-03T14:10:21;18.30;41.00
13268;DHT22;6702;47.068;15.458;2023-03-03T14:13:29;17.80;41.60
13268;DHT22;6702;47.068;15.458;2023-03-03T14:16:44;17.40;42.30
13268;DHT22;6702;47.068;15.458;2023-03-03T14:19:55;17.10;42.70
13268;DHT22;6702;47.068;15.458;2023-03-03T14:23:11;17.10;43.60
13268;DHT22;6702;47.068;15.458;2023-03-03T14:26:14;17.00;43.30
13268;DHT22;6702;47.068;15.458;2023-03-03T14:29:29;16.70;43.10
13268;DHT22;6702;47.068;15.458;2023-03-03T14:32:34;16.20;43.70
13268;DHT22;6702;47.068;15.458;2023-03-03T14:35:59;15.90;44.20
13268;DHT22;6702;47.068;15.458;2023-03-03T14:39:27;15.70;44.90
13268;DHT22;6702;47.068;15.458;2023-03-03T14:42:34;15.60;45.10
13268;DHT22;6702;47.068;15.458;2023-03-03T14:45:39;15.50;45.30
13268;DHT22;6702;47.068;15.458;2023-03-03T14:48:51;15.40;45.50
13268;DHT22;6702;47.068;15.458;2023-03-03T14:52:00;15.30;45.60
13268;DHT22;6702;47.068;15.458;2023-03-03T14:55:29;15.20;45.60
13268;DHT22;6702;47.068;15.458;2023-03-03T14:58:39;15.20;45.90
13268;DHT22;6702;47.068;15.458;2023-03-03T15:01:42;15.30;47.00
13268;DHT22;6702;47.068;15.458;2023-03-03T15:04:47;15.10;48.20
13268;DHT22;6702;47.068;15.458;2023-03-03T15:07:53;15.10;48.40
13268;DHT22;6702;47.068;15.458;2023-03-03T15:11:12;14.90;48.20
13268;DHT22;6702;47.068;15.458;2023-03-03T15:14:17;14.40;49.40
13268;DHT22;6702;47.068;15.458;2023-03-03T15:17:28;14.40;49.80
13268;DHT22;6702;47.068;15.458;2023-03-03T15:20:40;14.20;50.20
13268;DHT22;6702;47.068;15.458;2023-03-03T15:23:50;14.20;50.20
13268;DHT22;6702;47.068;15.458;2023-03-03T15:27:00;14.10;50.70
13268;DHT22;6702;47.068;15.458;2023-03-03T15:30:12;14.00;51.50
13268;DHT22;6702;47.068;15.458;2023-03-03T15:33:22;13.80;51.80
13268;DHT22;6702;47.068;15.458;2023-03-03T15:36:37;13.70;52.50
13268;DHT22;6702;47.068;15.458;2023-03-03T15:39:47;13.60;53.00
13268;DHT22;6702;47.068;15.458;2023-03-03T15:43:00;13.50;53.90
13268;DHT22;6702;47.068;15.458;2023-03-03T15:46:13;13.30;55.10
13268;DHT22;6702;47.068;15.458;2023-03-03T15:49:42;13.20;55.80
13268;DHT22;6702;47.068;15.458;2023-03-03T15:52:59;12.90;56.90
13268;DHT22;6702;47.068;15.458;2023-03-03T15:56:19;12.50;58.90
13268;DHT22;6702;47.068;15.458;2023-03-03T15:59:35;12.40;59.20
13268;DHT22;6702;47.068;15.458;2023-03-03T16:02:49;12.40;59.90
13268;DHT22;6702;47.068;15.458;2023-03-03T16:05:55;12.40;60.80
13268;DHT22;6702;47.068;15.458;2023-03-03T16:09:06;12.20;62.40
13268;DHT22;6702;47.068;15.458;2023-03-03T16:12:16;12.20;63.30
13268;DHT22;6702;47.068;15.458;2023-03-03T16:15:41;12.30;64.00
13268;DHT22;6702;47.068;15.458;2023-03-03T16:18:57;12.20;64.70
13268;DHT22;6702;47.068;15.458;2023-03-03T16:22:28;12.20;65.40
13268;DHT22;6702;47.068;15.458;2023-03-03T16:25:53;12.20;65.40
13268;DHT22;6702;47.068;15.458;2023-03-03T16:29:08;12.00;65.90
13268;DHT22;6702;47.068;15.458;2023-03-03T16:32:20;12.00;66.80
13268;DHT22;6702;47.068;15.458;2023-03-03T16:35:31;11.90;67.90
13268;DHT22;6702;47.068;15.458;2023-03-03T16:38:38;11.90;68.60
13268;DHT22;6702;47.068;15.458;2023-03-03T16:41:50;11.90;69.40
13268;DHT22;6702;47.068;15.458;2023-03-03T16:45:17;11.80;70.10
13268;DHT22;6702;47.068;15.458;2023-03-03T16:48:32;11.80;70.70
13268;DHT22;6702;47.068;15.458;2023-03-03T16:51:44;11.80;71.30
13268;DHT22;6702;47.068;15.458;2023-03-03T16:54:52;11.80;72.20
13268;DHT22;6702;47.068;15.458;2023-03-03T16:58:09;11.80;72.60
13268;DHT22;6702;47.068;15.458;2023-03-03T17:01:21;11.90;73.80
13268;DHT22;6702;47.068;15.458;2023-03-03T17:04:35;11.90;73.30
13268;DHT22;6702;47.068;15.458;2023-03-03T17:07:45;11.90;74.40
13268;DHT22;6702;47.068;15.458;2023-03-03T17:10:58;11.80;73.90
13268;DHT22;6702;47.068;15.458;2023-03-03T17:14:24;11.80;74.40
13268;DHT22;6702;47.068;15.458;2023-03-03T17:17:41;11.80;75.00
13268;DHT22;6702;47.068;15.458;2023-03-03T17:20:47;11.70;75.60
13268;DHT22;6702;47.068;15.458;2023-03-03T17:24:03;11.70;76.10
13268;DHT22;6702;47.068;15.458;2023-03-03T17:27:16;11.70;76.30
13268;DHT22;6702;47.068;15.458;2023-03-03T17:30:32;11.70;77.10
13268;DHT22;6702;47.068;15.458;2023-03-03T17:33:51;11.60;78.60
13268;DHT22;6702;47.068;15.458;2023-03-03T17:37:03;11.50;79.80
13268;DHT22;6702;47.068;15.458;2023-03-03T17:40:19;11.40;80.10
13268;DHT22;6702;47.068;15.458;2023-03-03T17:43:33;11.40;80.70
13268;DHT22;6702;47.068;15.458;2023-03-03T17:46:46;11.40;81.20
13268;DHT22;6702;47.068;15.458;2023-03-03T17:50:01;11.30;81.90
13268;DHT22;6702;47.068;15.458;2023-03-03T17:53:30;11.30;82.80
13268;DHT22;6702;47.068;15.458;2023-03-03T17:56:44;11.30;83.40
13268;DHT22;6702;47.068;15.458;2023-03-03T18:00:11;11.30;84.00
13268;DHT22;6702;47.068;15.458;2023-03-03T18:03:34;11.20;84.50
13268;DHT22;6702;47.068;15.458;2023-03-03T18:06:59;11.20;85.30
13268;DHT22;6702;47.068;15.458;2023-03-03T18:21:03;10.90;87.60
13268;DHT22;6702;47.068;15.458;2023-03-03T18:24:26;10.80;88.30
13268;DHT22;6702;47.068;15.458;2023-03-03T18:27:33;10.70;89.00
13268;DHT22;6702;47.068;15.458;2023-03-03T18:30:56;10.70;89.60
13268;DHT22;6702;47.068;15.458;2023-03-03T18:34:08;10.60;90.10
13268;DHT22;6702;47.068;15.458;2023-03-03T18:37:36;10.60;90.40
13268;DHT22;6702;47.068;15.458;2023-03-03T18:40:49;10.60;90.70
13268;DHT22;6702;47.068;15.458;2023-03-03T18:43:59;10.50;91.00
13268;DHT22;6702;47.068;15.458;2023-03-03T18:47:09;10.50;91.30
13268;DHT22;6702;47.068;15.458;2023-03-03T18:50:15;10.40;91.60
13268;DHT22;6702;47.068;15.458;2023-03-03T18:53:58;10.40;91.90
13268;DHT22;6702;47.068;15.458;2023-03-03T18:57:13;10.40;92.10
13268;DHT22;6702;47.068;15.458;2023-03-03T19:00:22;10.40;92.40
13268;DHT22;6702;47.068;15.458;2023-03-03T19:03:32;10.40;92.40
13268;DHT22;6702;47.068;15.458;2023-03-03T19:06:55;10.40;92.40
13268;DHT22;6702;47.068;15.458;2023-03-03T19:10:47;10.40;92.70
13268;DHT22;6702;47.068;15.458;2023-03-03T19:13:52;10.30;92.70
13268;DHT22;6702;47.068;15.458;2023-03-03T19:20:59;10.20;93.00
13268;DHT22;6702;47.068;15.458;2023-03-03T19:24:24;10.20;93.20
13268;DHT22;6702;47.068;15.458;2023-03-03T19:27:36;10.10;93.30
13268;DHT22;6702;47.068;15.458;2023-03-03T19:30:54;10.10;93.40
13268;DHT22;6702;47.068;15.458;2023-03-03T19:34:04;10.00;93.60
13268;DHT22;6702;47.068;15.458;2023-03-03T19:37:35;10.00;93.80
13268;DHT22;6702;47.068;15.458;2023-03-03T19:40:48;9.90;94.50
13268;DHT22;6702;47.068;15.458;2023-03-03T19:44:14;9.80;94.60
13268;DHT22;6702;47.068;15.458;2023-03-03T19:47:31;9.70;94.80
13268;DHT22;6702;47.068;15.458;2023-03-03T19:50:47;9.60;95.10
13268;DHT22;6702;47.068;15.458;2023-03-03T19:53:58;9.60;95.50
13268;DHT22;6702;47.068;15.458;2023-03-03T19:57:10;9.60;95.70
13268;DHT22;6702;47.068;15.458;2023-03-03T20:00:28;9.50;95.80
13268;DHT22;6702;47.068;15.458;2023-03-03T20:03:58;9.50;96.10
13268;DHT22;6702;47.068;15.458;2023-03-03T20:07:16;9.50;96.30
13268;DHT22;6702;47.068;15.458;2023-03-03T20:10:36;9.40;96.40
13268;DHT22;6702;47.068;15.458;2023-03-03T20:13:52;9.30;96.50
13268;DHT22;6702;47.068;15.458;2023-03-03T20:17:15;9.30;96.70
13268;DHT22;6702;47.068;15.458;2023-03-03T20:24:25;9.20;97.00
13268;DHT22;6702;47.068;15.458;2023-03-03T20:27:43;9.10;97.20
13268;DHT22;6702;47.068;15.458;2023-03-03T20:30:57;9.00;97.40
13268;DHT22;6702;47.068;15.458;2023-03-03T20:34:13;9.00;97.60
13268;DHT22;6702;47.068;15.458;2023-03-03T20:37:23;8.90;97.60